Richville, Michigan
Current Conditions -  °F | °C
As of 2:34 PM on Thursday 23 Oct 2014 (Local Time) from KHYX Reporting Station
Scattered Clouds Scattered Clouds  
Wind Chill: 50°   Ceiling: Unl
Heat Index: 50°   Visibility: 10mi
Dew Point: 37°   Wind: 5mph
Humidity: 62%   Direction: 180°S
Pressure: 30.18"   Gusts: NA
Location:  43.41°N, 83.68°W
Report Text: KHYX 231834Z AUTO 18004KT 10SM SCT019 10/03 A3018 RMK AO2
Loading
Personal Weather Stations






























Interactive Weather Map
Tropical Storm Tracking
New forecast layout! Learn more

10-Day Weather Forecast

Advertisements
Track Severe Weather on mobile